sensor_id;sensor_type;location;lat;lon;timestamp;P1;durP1;ratioP1;P2;durP2;ratioP2
65393;SDS011;52002;49.760;6.512;2023-06-24T00:00:55;6.00;;;2.20;;
65393;SDS011;52002;49.760;6.512;2023-06-24T00:03:21;2.40;;;2.20;;
65393;SDS011;52002;49.760;6.512;2023-06-24T00:05:46;4.30;;;2.10;;
65393;SDS011;52002;49.760;6.512;2023-06-24T00:08:14;2.50;;;2.30;;
65393;SDS011;52002;49.760;6.512;2023-06-24T00:10:45;2.70;;;2.20;;
65393;SDS011;52002;49.760;6.512;2023-06-24T00:13:11;2.70;;;2.10;;
65393;SDS011;52002;49.760;6.512;2023-06-24T00:15:38;4.10;;;2.30;;
65393;SDS011;52002;49.760;6.512;2023-06-24T00:18:07;3.50;;;2.00;;
65393;SDS011;52002;49.760;6.512;2023-06-24T00:20:36;2.90;;;2.00;;
65393;SDS011;52002;49.760;6.512;2023-06-24T00:23:02;6.20;;;2.20;;
65393;SDS011;52002;49.760;6.512;2023-06-24T00:25:28;4.30;;;2.40;;
65393;SDS011;52002;49.760;6.512;2023-06-24T00:27:54;4.80;;;2.30;;
65393;SDS011;52002;49.760;6.512;2023-06-24T00:30:19;4.40;;;2.30;;
65393;SDS011;52002;49.760;6.512;2023-06-24T00:32:44;4.70;;;2.50;;
65393;SDS011;52002;49.760;6.512;2023-06-24T00:35:10;3.60;;;2.20;;
65393;SDS011;52002;49.760;6.512;2023-06-24T00:37:37;4.10;;;2.30;;
65393;SDS011;52002;49.760;6.512;2023-06-24T00:40:03;3.30;;;2.10;;
65393;SDS011;52002;49.760;6.512;2023-06-24T00:42:30;7.20;;;2.40;;
65393;SDS011;52002;49.760;6.512;2023-06-24T00:44:56;2.70;;;2.30;;
65393;SDS011;52002;49.760;6.512;2023-06-24T00:47:22;10.40;;;2.10;;
65393;SDS011;52002;49.760;6.512;2023-06-24T00:49:48;6.50;;;2.20;;
65393;SDS011;52002;49.760;6.512;2023-06-24T00:52:14;3.30;;;2.20;;
65393;SDS011;52002;49.760;6.512;2023-06-24T00:54:41;7.50;;;2.30;;
65393;SDS011;52002;49.760;6.512;2023-06-24T00:57:07;6.50;;;2.30;;
65393;SDS011;52002;49.760;6.512;2023-06-24T00:59:33;5.20;;;2.30;;
65393;SDS011;52002;49.760;6.512;2023-06-24T01:02:00;4.80;;;2.20;;
65393;SDS011;52002;49.760;6.512;2023-06-24T01:04:26;4.50;;;2.50;;
65393;SDS011;52002;49.760;6.512;2023-06-24T01:06:52;4.90;;;2.40;;
65393;SDS011;52002;49.760;6.512;2023-06-24T01:09:19;2.90;;;2.50;;
65393;SDS011;52002;49.760;6.512;2023-06-24T01:11:46;4.90;;;2.60;;
65393;SDS011;52002;49.760;6.512;2023-06-24T01:14:12;4.10;;;2.50;;
65393;SDS011;52002;49.760;6.512;2023-06-24T01:22:30;7.60;;;2.30;;
65393;SDS011;52002;49.760;6.512;2023-06-24T01:33:34;6.40;;;2.30;;
65393;SDS011;52002;49.760;6.512;2023-06-24T01:36:26;5.90;;;2.10;;
65393;SDS011;52002;49.760;6.512;2023-06-24T01:39:01;2.20;;;2.00;;
65393;SDS011;52002;49.760;6.512;2023-06-24T01:41:31;4.30;;;2.10;;
65393;SDS011;52002;49.760;6.512;2023-06-24T01:43:59;3.30;;;2.30;;
65393;SDS011;52002;49.760;6.512;2023-06-24T01:46:27;5.20;;;2.50;;
65393;SDS011;52002;49.760;6.512;2023-06-24T01:48:54;2.60;;;2.10;;
65393;SDS011;52002;49.760;6.512;2023-06-24T01:51:24;7.80;;;2.10;;
65393;SDS011;52002;49.760;6.512;2023-06-24T01:53:56;2.70;;;2.00;;
65393;SDS011;52002;49.760;6.512;2023-06-24T01:56:25;3.30;;;2.10;;
65393;SDS011;52002;49.760;6.512;2023-06-24T01:58:53;5.40;;;2.30;;
65393;SDS011;52002;49.760;6.512;2023-06-24T02:01:20;4.40;;;2.10;;
65393;SDS011;52002;49.760;6.512;2023-06-24T02:03:48;4.00;;;2.20;;
65393;SDS011;52002;49.760;6.512;2023-06-24T02:06:14;5.60;;;2.30;;
65393;SDS011;52002;49.760;6.512;2023-06-24T02:08:42;2.90;;;2.30;;
65393;SDS011;52002;49.760;6.512;2023-06-24T02:11:08;3.10;;;2.40;;
65393;SDS011;52002;49.760;6.512;2023-06-24T02:13:35;2.80;;;2.20;;
65393;SDS011;52002;49.760;6.512;2023-06-24T02:16:03;4.00;;;2.40;;
65393;SDS011;52002;49.760;6.512;2023-06-24T02:18:31;2.60;;;2.00;;
65393;SDS011;52002;49.760;6.512;2023-06-24T02:20:59;5.20;;;2.80;;
65393;SDS011;52002;49.760;6.512;2023-06-24T02:23:26;30.70;;;3.70;;
65393;SDS011;52002;49.760;6.512;2023-06-24T02:25:54;3.00;;;2.40;;
65393;SDS011;52002;49.760;6.512;2023-06-24T02:28:21;4.00;;;2.20;;
65393;SDS011;52002;49.760;6.512;2023-06-24T02:30:47;14.70;;;2.80;;
65393;SDS011;52002;49.760;6.512;2023-06-24T02:33:14;5.20;;;2.80;;
65393;SDS011;52002;49.760;6.512;2023-06-24T02:35:40;4.10;;;2.80;;
65393;SDS011;52002;49.760;6.512;2023-06-24T02:38:07;4.00;;;2.50;;
65393;SDS011;52002;49.760;6.512;2023-06-24T02:40:33;3.70;;;2.30;;
65393;SDS011;52002;49.760;6.512;2023-06-24T02:42:59;2.50;;;2.10;;
65393;SDS011;52002;49.760;6.512;2023-06-24T02:45:24;4.30;;;2.10;;
65393;SDS011;52002;49.760;6.512;2023-06-24T02:47:50;2.80;;;2.20;;
65393;SDS011;52002;49.760;6.512;2023-06-24T02:50:17;6.10;;;2.20;;
65393;SDS011;52002;49.760;6.512;2023-06-24T02:52:43;3.10;;;2.50;;
65393;SDS011;52002;49.760;6.512;2023-06-24T02:55:09;3.60;;;2.60;;
65393;SDS011;52002;49.760;6.512;2023-06-24T02:57:42;3.30;;;2.20;;
65393;SDS011;52002;49.760;6.512;2023-06-24T03:00:09;4.10;;;2.50;;
65393;SDS011;52002;49.760;6.512;2023-06-24T03:02:38;9.90;;;2.40;;
65393;SDS011;52002;49.760;6.512;2023-06-24T03:05:04;3.60;;;2.70;;
65393;SDS011;52002;49.760;6.512;2023-06-24T03:07:31;2.30;;;2.10;;
65393;SDS011;52002;49.760;6.512;2023-06-24T03:10:00;3.20;;;2.40;;
65393;SDS011;52002;49.760;6.512;2023-06-24T03:12:28;4.10;;;2.30;;
65393;SDS011;52002;49.760;6.512;2023-06-24T03:14:54;6.00;;;2.10;;
65393;SDS011;52002;49.760;6.512;2023-06-24T03:17:19;3.40;;;2.30;;
65393;SDS011;52002;49.760;6.512;2023-06-24T03:19:45;5.80;;;2.60;;
65393;SDS011;52002;49.760;6.512;2023-06-24T03:22:10;2.70;;;2.50;;
65393;SDS011;52002;49.760;6.512;2023-06-24T03:24:36;2.90;;;2.20;;
65393;SDS011;52002;49.760;6.512;2023-06-24T03:27:01;4.30;;;2.80;;
65393;SDS011;52002;49.760;6.512;2023-06-24T03:29:27;2.90;;;2.50;;
65393;SDS011;52002;49.760;6.512;2023-06-24T03:31:53;3.40;;;2.40;;
65393;SDS011;52002;49.760;6.512;2023-06-24T03:34:18;3.40;;;2.10;;
65393;SDS011;52002;49.760;6.512;2023-06-24T03:36:44;4.80;;;2.50;;
65393;SDS011;52002;49.760;6.512;2023-06-24T03:39:10;5.40;;;2.40;;
65393;SDS011;52002;49.760;6.512;2023-06-24T03:41:35;3.60;;;2.40;;
65393;SDS011;52002;49.760;6.512;2023-06-24T03:44:00;5.90;;;2.60;;
65393;SDS011;52002;49.760;6.512;2023-06-24T03:46:26;10.40;;;3.00;;
65393;SDS011;52002;49.760;6.512;2023-06-24T03:48:52;5.00;;;2.60;;
65393;SDS011;52002;49.760;6.512;2023-06-24T03:51:17;4.30;;;2.50;;
65393;SDS011;52002;49.760;6.512;2023-06-24T03:53:42;3.50;;;2.30;;
65393;SDS011;52002;49.760;6.512;2023-06-24T03:56:08;6.70;;;2.50;;
65393;SDS011;52002;49.760;6.512;2023-06-24T03:58:33;4.40;;;2.50;;
65393;SDS011;52002;49.760;6.512;2023-06-24T04:00:59;4.70;;;2.30;;
65393;SDS011;52002;49.760;6.512;2023-06-24T04:03:28;8.60;;;2.60;;
65393;SDS011;52002;49.760;6.512;2023-06-24T04:05:56;4.60;;;2.50;;
65393;SDS011;52002;49.760;6.512;2023-06-24T04:08:23;3.40;;;2.30;;
65393;SDS011;52002;49.760;6.512;2023-06-24T04:10:54;5.20;;;2.50;;
65393;SDS011;52002;49.760;6.512;2023-06-24T04:13:20;4.70;;;2.40;;
65393;SDS011;52002;49.760;6.512;2023-06-24T04:15:45;6.70;;;2.50;;
65393;SDS011;52002;49.760;6.512;2023-06-24T04:18:10;5.50;;;2.40;;
65393;SDS011;52002;49.760;6.512;2023-06-24T04:20:36;8.20;;;2.70;;
65393;SDS011;52002;49.760;6.512;2023-06-24T04:23:01;4.90;;;2.50;;
65393;SDS011;52002;49.760;6.512;2023-06-24T04:25:26;2.90;;;2.40;;
65393;SDS011;52002;49.760;6.512;2023-06-24T04:27:52;4.00;;;2.50;;
65393;SDS011;52002;49.760;6.512;2023-06-24T04:30:17;5.20;;;2.30;;
65393;SDS011;52002;49.760;6.512;2023-06-24T04:32:42;4.50;;;2.60;;
65393;SDS011;52002;49.760;6.512;2023-06-24T04:35:08;3.20;;;2.30;;
65393;SDS011;52002;49.760;6.512;2023-06-24T04:37:34;8.20;;;3.20;;
65393;SDS011;52002;49.760;6.512;2023-06-24T04:39:59;3.70;;;2.30;;
65393;SDS011;52002;49.760;6.512;2023-06-24T04:42:24;6.30;;;2.50;;
65393;SDS011;52002;49.760;6.512;2023-06-24T04:44:50;4.20;;;2.50;;
65393;SDS011;52002;49.760;6.512;2023-06-24T04:47:18;9.70;;;3.10;;
65393;SDS011;52002;49.760;6.512;2023-06-24T04:49:43;4.30;;;2.70;;
65393;SDS011;52002;49.760;6.512;2023-06-24T04:52:10;5.20;;;2.80;;
65393;SDS011;52002;49.760;6.512;2023-06-24T04:54:36;4.20;;;2.50;;
65393;SDS011;52002;49.760;6.512;2023-06-24T04:57:01;8.30;;;2.70;;
65393;SDS011;52002;49.760;6.512;2023-06-24T04:59:27;3.20;;;2.60;;
65393;SDS011;52002;49.760;6.512;2023-06-24T05:01:52;2.90;;;2.50;;
65393;SDS011;52002;49.760;6.512;2023-06-24T05:04:18;4.10;;;2.30;;
65393;SDS011;52002;49.760;6.512;2023-06-24T05:06:43;4.10;;;2.80;;
65393;SDS011;52002;49.760;6.512;2023-06-24T05:09:09;7.50;;;3.00;;
65393;SDS011;52002;49.760;6.512;2023-06-24T05:11:38;3.70;;;2.90;;
65393;SDS011;52002;49.760;6.512;2023-06-24T05:14:04;4.90;;;2.80;;
65393;SDS011;52002;49.760;6.512;2023-06-24T05:16:29;3.20;;;2.60;;
65393;SDS011;52002;49.760;6.512;2023-06-24T05:18:55;3.50;;;2.60;;
65393;SDS011;52002;49.760;6.512;2023-06-24T05:21:20;8.40;;;3.30;;
65393;SDS011;52002;49.760;6.512;2023-06-24T05:23:45;4.90;;;2.90;;
65393;SDS011;52002;49.760;6.512;2023-06-24T05:26:11;4.30;;;2.90;;
65393;SDS011;52002;49.760;6.512;2023-06-24T05:28:36;5.40;;;3.00;;
65393;SDS011;52002;49.760;6.512;2023-06-24T05:31:02;3.00;;;2.50;;
65393;SDS011;52002;49.760;6.512;2023-06-24T05:33:27;6.90;;;2.60;;
65393;SDS011;52002;49.760;6.512;2023-06-24T05:35:52;5.50;;;2.70;;
65393;SDS011;52002;49.760;6.512;2023-06-24T05:38:18;4.60;;;2.60;;
65393;SDS011;52002;49.760;6.512;2023-06-24T05:40:43;3.90;;;2.50;;
65393;SDS011;52002;49.760;6.512;2023-06-24T05:43:09;5.30;;;2.80;;
65393;SDS011;52002;49.760;6.512;2023-06-24T05:45:36;5.20;;;2.80;;
65393;SDS011;52002;49.760;6.512;2023-06-24T05:48:02;5.40;;;2.50;;
65393;SDS011;52002;49.760;6.512;2023-06-24T05:50:28;3.70;;;2.80;;
65393;SDS011;52002;49.760;6.512;2023-06-24T05:52:53;4.50;;;2.60;;
65393;SDS011;52002;49.760;6.512;2023-06-24T05:55:19;4.20;;;2.80;;
65393;SDS011;52002;49.760;6.512;2023-06-24T05:57:44;3.90;;;2.90;;
65393;SDS011;52002;49.760;6.512;2023-06-24T06:00:09;4.10;;;2.60;;
65393;SDS011;52002;49.760;6.512;2023-06-24T06:02:35;3.20;;;2.80;;
65393;SDS011;52002;49.760;6.512;2023-06-24T06:05:00;2.70;;;2.40;;
65393;SDS011;52002;49.760;6.512;2023-06-24T06:07:26;2.80;;;2.60;;
65393;SDS011;52002;49.760;6.512;2023-06-24T06:09:52;3.90;;;2.60;;
65393;SDS011;52002;49.760;6.512;2023-06-24T06:12:17;6.20;;;3.00;;
65393;SDS011;52002;49.760;6.512;2023-06-24T06:14:42;4.10;;;3.00;;
65393;SDS011;52002;49.760;6.512;2023-06-24T06:17:08;3.30;;;3.00;;
65393;SDS011;52002;49.760;6.512;2023-06-24T06:19:33;3.00;;;2.80;;
65393;SDS011;52002;49.760;6.512;2023-06-24T06:21:58;3.70;;;3.10;;
65393;SDS011;52002;49.760;6.512;2023-06-24T06:24:24;5.60;;;3.10;;
65393;SDS011;52002;49.760;6.512;2023-06-24T06:26:49;3.40;;;3.10;;
65393;SDS011;52002;49.760;6.512;2023-06-24T06:29:14;3.40;;;3.20;;
65393;SDS011;52002;49.760;6.512;2023-06-24T06:31:40;3.90;;;3.60;;
65393;SDS011;52002;49.760;6.512;2023-06-24T06:34:05;5.70;;;3.60;;
65393;SDS011;52002;49.760;6.512;2023-06-24T06:36:30;15.10;;;3.60;;
65393;SDS011;52002;49.760;6.512;2023-06-24T06:38:56;7.20;;;3.60;;
65393;SDS011;52002;49.760;6.512;2023-06-24T06:41:21;5.60;;;3.60;;
65393;SDS011;52002;49.760;6.512;2023-06-24T06:43:50;5.40;;;3.90;;
65393;SDS011;52002;49.760;6.512;2023-06-24T06:46:16;4.60;;;4.10;;
65393;SDS011;52002;49.760;6.512;2023-06-24T06:48:41;4.10;;;3.80;;
65393;SDS011;52002;49.760;6.512;2023-06-24T06:51:07;4.40;;;4.10;;
65393;SDS011;52002;49.760;6.512;2023-06-24T06:53:32;5.80;;;5.20;;
65393;SDS011;52002;49.760;6.512;2023-06-24T06:55:58;4.60;;;4.30;;
65393;SDS011;52002;49.760;6.512;2023-06-24T06:58:24;5.80;;;5.00;;
65393;SDS011;52002;49.760;6.512;2023-06-24T07:00:49;7.20;;;5.40;;
65393;SDS011;52002;49.760;6.512;2023-06-24T07:03:15;6.00;;;5.40;;
65393;SDS011;52002;49.760;6.512;2023-06-24T07:05:41;5.90;;;5.40;;
65393;SDS011;52002;49.760;6.512;2023-06-24T07:08:06;7.20;;;5.90;;
65393;SDS011;52002;49.760;6.512;2023-06-24T07:10:32;7.20;;;6.50;;
65393;SDS011;52002;49.760;6.512;2023-06-24T07:12:57;7.60;;;6.90;;
65393;SDS011;52002;49.760;6.512;2023-06-24T07:15:26;10.30;;;7.60;;
65393;SDS011;52002;49.760;6.512;2023-06-24T07:17:51;8.50;;;7.80;;
65393;SDS011;52002;49.760;6.512;2023-06-24T07:20:18;9.00;;;8.10;;
65393;SDS011;52002;49.760;6.512;2023-06-24T07:22:44;9.20;;;8.60;;
65393;SDS011;52002;49.760;6.512;2023-06-24T07:25:09;10.40;;;9.60;;
65393;SDS011;52002;49.760;6.512;2023-06-24T07:27:35;10.40;;;9.50;;
65393;SDS011;52002;49.760;6.512;2023-06-24T07:30:00;10.10;;;9.50;;
65393;SDS011;52002;49.760;6.512;2023-06-24T07:32:25;11.60;;;10.90;;
65393;SDS011;52002;49.760;6.512;2023-06-24T07:34:51;12.30;;;11.40;;
65393;SDS011;52002;49.760;6.512;2023-06-24T07:37:16;13.40;;;11.90;;
65393;SDS011;52002;49.760;6.512;2023-06-24T07:39:41;13.70;;;12.60;;
65393;SDS011;52002;49.760;6.512;2023-06-24T07:42:07;15.30;;;14.10;;
65393;SDS011;52002;49.760;6.512;2023-06-24T07:44:32;14.00;;;13.10;;
65393;SDS011;52002;49.760;6.512;2023-06-24T07:46:58;15.70;;;14.70;;
65393;SDS011;52002;49.760;6.512;2023-06-24T07:49:23;15.20;;;14.10;;
65393;SDS011;52002;49.760;6.512;2023-06-24T07:51:49;16.60;;;15.10;;
65393;SDS011;52002;49.760;6.512;2023-06-24T07:54:14;16.90;;;15.60;;
65393;SDS011;52002;49.760;6.512;2023-06-24T07:56:40;16.40;;;15.00;;
65393;SDS011;52002;49.760;6.512;2023-06-24T07:59:06;15.90;;;14.80;;
65393;SDS011;52002;49.760;6.512;2023-06-24T08:01:31;18.30;;;16.90;;
65393;SDS011;52002;49.760;6.512;2023-06-24T08:03:57;16.20;;;15.10;;
65393;SDS011;52002;49.760;6.512;2023-06-24T08:06:22;16.60;;;15.30;;
65393;SDS011;52002;49.760;6.512;2023-06-24T08:08:48;15.70;;;14.50;;
65393;SDS011;52002;49.760;6.512;2023-06-24T08:11:13;14.30;;;13.20;;
65393;SDS011;52002;49.760;6.512;2023-06-24T08:13:39;15.40;;;12.60;;
65393;SDS011;52002;49.760;6.512;2023-06-24T08:16:04;12.60;;;11.40;;
65393;SDS011;52002;49.760;6.512;2023-06-24T08:18:30;11.10;;;10.20;;
65393;SDS011;52002;49.760;6.512;2023-06-24T08:20:55;11.10;;;10.30;;
65393;SDS011;52002;49.760;6.512;2023-06-24T08:23:21;10.00;;;9.10;;
65393;SDS011;52002;49.760;6.512;2023-06-24T08:25:46;9.10;;;8.30;;
65393;SDS011;52002;49.760;6.512;2023-06-24T08:28:12;9.10;;;8.30;;
65393;SDS011;52002;49.760;6.512;2023-06-24T08:30:37;8.90;;;8.20;;
65393;SDS011;52002;49.760;6.512;2023-06-24T08:33:02;8.00;;;7.30;;
65393;SDS011;52002;49.760;6.512;2023-06-24T08:35:28;7.10;;;6.60;;
65393;SDS011;52002;49.760;6.512;2023-06-24T08:37:53;7.50;;;6.80;;
65393;SDS011;52002;49.760;6.512;2023-06-24T08:40:18;7.40;;;6.70;;
65393;SDS011;52002;49.760;6.512;2023-06-24T08:42:44;6.60;;;6.00;;
65393;SDS011;52002;49.760;6.512;2023-06-24T08:45:10;6.30;;;5.80;;
65393;SDS011;52002;49.760;6.512;2023-06-24T08:47:35;6.20;;;5.20;;
65393;SDS011;52002;49.760;6.512;2023-06-24T08:50:03;5.60;;;5.10;;
65393;SDS011;52002;49.760;6.512;2023-06-24T08:52:34;4.90;;;4.50;;
65393;SDS011;52002;49.760;6.512;2023-06-24T08:55:01;4.50;;;4.10;;
65393;SDS011;52002;49.760;6.512;2023-06-24T08:57:29;5.30;;;3.90;;
65393;SDS011;52002;49.760;6.512;2023-06-24T08:59:54;4.70;;;3.30;;
65393;SDS011;52002;49.760;6.512;2023-06-24T09:02:20;3.30;;;3.00;;
65393;SDS011;52002;49.760;6.512;2023-06-24T09:04:45;3.20;;;2.80;;
65393;SDS011;52002;49.760;6.512;2023-06-24T09:07:11;5.30;;;2.80;;
65393;SDS011;52002;49.760;6.512;2023-06-24T09:09:43;3.20;;;2.30;;
65393;SDS011;52002;49.760;6.512;2023-06-24T09:12:10;3.70;;;2.50;;
65393;SDS011;52002;49.760;6.512;2023-06-24T09:14:37;3.30;;;2.60;;
65393;SDS011;52002;49.760;6.512;2023-06-24T09:17:02;2.80;;;2.30;;
65393;SDS011;52002;49.760;6.512;2023-06-24T09:19:31;3.30;;;2.40;;
65393;SDS011;52002;49.760;6.512;2023-06-24T09:22:08;4.20;;;2.40;;
65393;SDS011;52002;49.760;6.512;2023-06-24T09:24:41;4.70;;;2.50;;
65393;SDS011;52002;49.760;6.512;2023-06-24T09:27:07;5.40;;;2.50;;
65393;SDS011;52002;49.760;6.512;2023-06-24T09:29:33;3.60;;;2.30;;
65393;SDS011;52002;49.760;6.512;2023-06-24T09:31:59;5.00;;;2.70;;
65393;SDS011;52002;49.760;6.512;2023-06-24T09:34:28;7.30;;;2.60;;
65393;SDS011;52002;49.760;6.512;2023-06-24T09:36:54;2.80;;;2.10;;
65393;SDS011;52002;49.760;6.512;2023-06-24T09:39:20;2.80;;;2.00;;
65393;SDS011;52002;49.760;6.512;2023-06-24T09:41:50;2.80;;;2.40;;
65393;SDS011;52002;49.760;6.512;2023-06-24T09:44:16;9.40;;;2.40;;
65393;SDS011;52002;49.760;6.512;2023-06-24T09:46:44;31.90;;;3.10;;
65393;SDS011;52002;49.760;6.512;2023-06-24T09:49:09;2.40;;;2.20;;
65393;SDS011;52002;49.760;6.512;2023-06-24T09:51:39;3.80;;;2.30;;
65393;SDS011;52002;49.760;6.512;2023-06-24T09:54:09;4.10;;;2.50;;
65393;SDS011;52002;49.760;6.512;2023-06-24T09:56:37;4.40;;;2.30;;
65393;SDS011;52002;49.760;6.512;2023-06-24T09:59:11;5.80;;;2.40;;
65393;SDS011;52002;49.760;6.512;2023-06-24T10:01:41;3.70;;;2.50;;
65393;SDS011;52002;49.760;6.512;2023-06-24T10:04:09;2.90;;;2.40;;
65393;SDS011;52002;49.760;6.512;2023-06-24T10:06:42;3.70;;;2.20;;
65393;SDS011;52002;49.760;6.512;2023-06-24T10:09:08;3.50;;;2.40;;
65393;SDS011;52002;49.760;6.512;2023-06-24T10:11:33;9.00;;;2.60;;
65393;SDS011;52002;49.760;6.512;2023-06-24T10:13:59;3.60;;;2.50;;
65393;SDS011;52002;49.760;6.512;2023-06-24T10:16:24;4.40;;;2.90;;
65393;SDS011;52002;49.760;6.512;2023-06-24T10:18:50;3.30;;;2.40;;
65393;SDS011;52002;49.760;6.512;2023-06-24T10:21:15;4.70;;;2.60;;
65393;SDS011;52002;49.760;6.512;2023-06-24T10:34:11;2.10;;;2.00;;
65393;SDS011;52002;49.760;6.512;2023-06-24T10:37:01;4.00;;;2.10;;
65393;SDS011;52002;49.760;6.512;2023-06-24T10:42:36;3.00;;;2.50;;
65393;SDS011;52002;49.760;6.512;2023-06-24T10:47:35;2.70;;;2.30;;
65393;SDS011;52002;49.760;6.512;2023-06-24T10:50:11;4.50;;;2.40;;
65393;SDS011;52002;49.760;6.512;2023-06-24T10:52:42;3.30;;;2.40;;
65393;SDS011;52002;49.760;6.512;2023-06-24T10:55:15;2.40;;;2.20;;
65393;SDS011;52002;49.760;6.512;2023-06-24T10:57:41;4.50;;;2.50;;
65393;SDS011;52002;49.760;6.512;2023-06-24T11:00:07;3.70;;;2.40;;
65393;SDS011;52002;49.760;6.512;2023-06-24T11:02:33;3.80;;;2.40;;
65393;SDS011;52002;49.760;6.512;2023-06-24T11:04:59;5.90;;;2.40;;
65393;SDS011;52002;49.760;6.512;2023-06-24T11:07:27;3.20;;;2.20;;
65393;SDS011;52002;49.760;6.512;2023-06-24T11:09:56;5.00;;;2.40;;
65393;SDS011;52002;49.760;6.512;2023-06-24T11:12:23;13.00;;;2.40;;
65393;SDS011;52002;49.760;6.512;2023-06-24T11:14:50;3.90;;;2.60;;
65393;SDS011;52002;49.760;6.512;2023-06-24T11:17:16;5.20;;;2.60;;
65393;SDS011;52002;49.760;6.512;2023-06-24T11:19:41;3.20;;;2.40;;
65393;SDS011;52002;49.760;6.512;2023-06-24T11:22:08;5.30;;;2.50;;
65393;SDS011;52002;49.760;6.512;2023-06-24T11:24:34;3.40;;;2.40;;
65393;SDS011;52002;49.760;6.512;2023-06-24T11:27:01;3.40;;;2.50;;
65393;SDS011;52002;49.760;6.512;2023-06-24T11:29:29;4.70;;;2.40;;
65393;SDS011;52002;49.760;6.512;2023-06-24T11:31:55;5.00;;;2.50;;
65393;SDS011;52002;49.760;6.512;2023-06-24T11:34:21;3.30;;;2.40;;
65393;SDS011;52002;49.760;6.512;2023-06-24T11:36:47;3.40;;;2.40;;
65393;SDS011;52002;49.760;6.512;2023-06-24T11:39:20;3.70;;;2.70;;
65393;SDS011;52002;49.760;6.512;2023-06-24T11:41:49;10.70;;;2.40;;
65393;SDS011;52002;49.760;6.512;2023-06-24T11:44:17;2.80;;;2.40;;
65393;SDS011;52002;49.760;6.512;2023-06-24T11:46:44;6.10;;;2.20;;
65393;SDS011;52002;49.760;6.512;2023-06-24T11:49:09;2.60;;;2.40;;
65393;SDS011;52002;49.760;6.512;2023-06-24T11:51:35;3.10;;;2.30;;
65393;SDS011;52002;49.760;6.512;2023-06-24T11:54:02;5.80;;;2.50;;
65393;SDS011;52002;49.760;6.512;2023-06-24T11:56:40;3.30;;;2.30;;
65393;SDS011;52002;49.760;6.512;2023-06-24T11:59:07;2.80;;;2.00;;
65393;SDS011;52002;49.760;6.512;2023-06-24T12:01:44;3.90;;;2.50;;
65393;SDS011;52002;49.760;6.512;2023-06-24T12:04:13;4.40;;;2.50;;
65393;SDS011;52002;49.760;6.512;2023-06-24T12:06:42;4.30;;;2.60;;
65393;SDS011;52002;49.760;6.512;2023-06-24T12:09:09;6.30;;;2.50;;
65393;SDS011;52002;49.760;6.512;2023-06-24T12:11:35;3.60;;;2.20;;
65393;SDS011;52002;49.760;6.512;2023-06-24T12:14:01;4.90;;;2.20;;
65393;SDS011;52002;49.760;6.512;2023-06-24T12:16:26;4.90;;;2.20;;
65393;SDS011;52002;49.760;6.512;2023-06-24T12:18:52;5.30;;;2.20;;
65393;SDS011;52002;49.760;6.512;2023-06-24T12:21:18;4.50;;;2.60;;
65393;SDS011;52002;49.760;6.512;2023-06-24T12:23:44;3.20;;;2.20;;
65393;SDS011;52002;49.760;6.512;2023-06-24T12:26:10;4.50;;;2.30;;
65393;SDS011;52002;49.760;6.512;2023-06-24T12:28:36;3.60;;;2.40;;
65393;SDS011;52002;49.760;6.512;2023-06-24T12:31:01;2.90;;;2.30;;
65393;SDS011;52002;49.760;6.512;2023-06-24T12:33:27;3.00;;;2.40;;
65393;SDS011;52002;49.760;6.512;2023-06-24T12:35:53;5.60;;;2.60;;
65393;SDS011;52002;49.760;6.512;2023-06-24T12:38:18;6.50;;;2.50;;
65393;SDS011;52002;49.760;6.512;2023-06-24T12:40:43;4.60;;;2.50;;
65393;SDS011;52002;49.760;6.512;2023-06-24T12:43:10;3.20;;;2.60;;
65393;SDS011;52002;49.760;6.512;2023-06-24T12:45:36;4.10;;;2.70;;
65393;SDS011;52002;49.760;6.512;2023-06-24T12:48:05;2.70;;;2.40;;
65393;SDS011;52002;49.760;6.512;2023-06-24T12:50:31;4.40;;;2.70;;
65393;SDS011;52002;49.760;6.512;2023-06-24T12:52:57;7.20;;;2.30;;
65393;SDS011;52002;49.760;6.512;2023-06-24T12:55:23;4.90;;;2.60;;
65393;SDS011;52002;49.760;6.512;2023-06-24T12:57:48;5.30;;;2.50;;
65393;SDS011;52002;49.760;6.512;2023-06-24T13:00:14;2.70;;;2.40;;
65393;SDS011;52002;49.760;6.512;2023-06-24T13:02:40;2.60;;;2.30;;
65393;SDS011;52002;49.760;6.512;2023-06-24T13:05:05;3.30;;;2.70;;
65393;SDS011;52002;49.760;6.512;2023-06-24T13:07:31;2.70;;;2.30;;
65393;SDS011;52002;49.760;6.512;2023-06-24T13:09:56;4.40;;;2.60;;
65393;SDS011;52002;49.760;6.512;2023-06-24T13:12:22;8.40;;;2.70;;
65393;SDS011;52002;49.760;6.512;2023-06-24T13:14:47;3.90;;;2.60;;
65393;SDS011;52002;49.760;6.512;2023-06-24T13:17:13;2.90;;;2.40;;
65393;SDS011;52002;49.760;6.512;2023-06-24T13:19:38;3.90;;;2.40;;
65393;SDS011;52002;49.760;6.512;2023-06-24T13:22:04;3.20;;;2.50;;
65393;SDS011;52002;49.760;6.512;2023-06-24T13:24:29;7.80;;;2.40;;
65393;SDS011;52002;49.760;6.512;2023-06-24T13:26:55;6.20;;;2.70;;
65393;SDS011;52002;49.760;6.512;2023-06-24T13:29:20;5.30;;;2.40;;
65393;SDS011;52002;49.760;6.512;2023-06-24T13:31:46;3.10;;;2.70;;
65393;SDS011;52002;49.760;6.512;2023-06-24T13:34:12;6.80;;;2.30;;
65393;SDS011;52002;49.760;6.512;2023-06-24T13:36:38;10.60;;;2.70;;
65393;SDS011;52002;49.760;6.512;2023-06-24T13:39:04;4.60;;;2.40;;
65393;SDS011;52002;49.760;6.512;2023-06-24T13:41:31;2.50;;;2.10;;
65393;SDS011;52002;49.760;6.512;2023-06-24T13:44:00;3.70;;;2.40;;
65393;SDS011;52002;49.760;6.512;2023-06-24T13:46:27;4.20;;;2.60;;
65393;SDS011;52002;49.760;6.512;2023-06-24T13:48:53;5.80;;;2.40;;
65393;SDS011;52002;49.760;6.512;2023-06-24T13:51:18;2.80;;;2.50;;
65393;SDS011;52002;49.760;6.512;2023-06-24T13:53:48;5.40;;;2.50;;
65393;SDS011;52002;49.760;6.512;2023-06-24T13:56:16;3.10;;;2.50;;
65393;SDS011;52002;49.760;6.512;2023-06-24T13:58:44;6.30;;;2.50;;
65393;SDS011;52002;49.760;6.512;2023-06-24T14:01:11;4.90;;;2.60;;
65393;SDS011;52002;49.760;6.512;2023-06-24T14:03:37;4.10;;;2.50;;
65393;SDS011;52002;49.760;6.512;2023-06-24T14:06:03;4.90;;;2.50;;
65393;SDS011;52002;49.760;6.512;2023-06-24T14:08:29;2.60;;;2.40;;
65393;SDS011;52002;49.760;6.512;2023-06-24T14:10:57;8.10;;;2.70;;
65393;SDS011;52002;49.760;6.512;2023-06-24T14:13:22;5.80;;;2.70;;
65393;SDS011;52002;49.760;6.512;2023-06-24T14:15:48;3.60;;;2.50;;
65393;SDS011;52002;49.760;6.512;2023-06-24T14:18:13;2.90;;;2.60;;
65393;SDS011;52002;49.760;6.512;2023-06-24T14:20:39;2.90;;;2.60;;
65393;SDS011;52002;49.760;6.512;2023-06-24T14:23:05;3.20;;;2.40;;
65393;SDS011;52002;49.760;6.512;2023-06-24T14:25:30;4.40;;;2.90;;
65393;SDS011;52002;49.760;6.512;2023-06-24T14:27:56;4.80;;;2.50;;
65393;SDS011;52002;49.760;6.512;2023-06-24T14:30:21;3.90;;;2.70;;
65393;SDS011;52002;49.760;6.512;2023-06-24T14:32:47;5.60;;;2.40;;
65393;SDS011;52002;49.760;6.512;2023-06-24T14:35:12;3.00;;;2.60;;
65393;SDS011;52002;49.760;6.512;2023-06-24T14:37:38;4.20;;;2.40;;
65393;SDS011;52002;49.760;6.512;2023-06-24T14:40:04;3.40;;;2.60;;
65393;SDS011;52002;49.760;6.512;2023-06-24T14:42:30;3.70;;;2.40;;
65393;SDS011;52002;49.760;6.512;2023-06-24T14:44:55;3.50;;;2.80;;
65393;SDS011;52002;49.760;6.512;2023-06-24T14:47:20;6.50;;;2.60;;
65393;SDS011;52002;49.760;6.512;2023-06-24T14:49:46;4.70;;;2.30;;
65393;SDS011;52002;49.760;6.512;2023-06-24T14:52:11;3.10;;;2.90;;
65393;SDS011;52002;49.760;6.512;2023-06-24T14:54:36;3.90;;;2.70;;
65393;SDS011;52002;49.760;6.512;2023-06-24T14:57:02;5.80;;;2.90;;
65393;SDS011;52002;49.760;6.512;2023-06-24T14:59:27;2.90;;;2.30;;
65393;SDS011;52002;49.760;6.512;2023-06-24T15:01:53;3.00;;;2.40;;
65393;SDS011;52002;49.760;6.512;2023-06-24T15:04:18;3.20;;;2.50;;
65393;SDS011;52002;49.760;6.512;2023-06-24T15:06:43;3.30;;;2.90;;
65393;SDS011;52002;49.760;6.512;2023-06-24T15:09:10;3.20;;;2.90;;
65393;SDS011;52002;49.760;6.512;2023-06-24T15:11:36;3.90;;;2.80;;